sensor_id;sensor_type;location;lat;lon;timestamp;P1;durP1;ratioP1;P2;durP2;ratioP2
19059;SDS011;9663;48.996;8.334;2022-11-25T00:01:11;5.20;;;1.90;;
19059;SDS011;9663;48.996;8.334;2022-11-25T00:03:40;6.15;;;2.50;;
19059;SDS011;9663;48.996;8.334;2022-11-25T00:08:34;5.38;;;2.00;;
19059;SDS011;9663;48.996;8.334;2022-11-25T00:11:00;5.45;;;2.08;;
19059;SDS011;9663;48.996;8.334;2022-11-25T00:13:26;6.00;;;2.20;;
19059;SDS011;9663;48.996;8.334;2022-11-25T00:15:52;4.88;;;2.17;;
19059;SDS011;9663;48.996;8.334;2022-11-25T00:18:18;5.32;;;2.22;;
19059;SDS011;9663;48.996;8.334;2022-11-25T00:20:43;4.68;;;2.10;;
19059;SDS011;9663;48.996;8.334;2022-11-25T00:23:09;4.90;;;1.80;;
19059;SDS011;9663;48.996;8.334;2022-11-25T00:25:35;4.68;;;1.90;;
19059;SDS011;9663;48.996;8.334;2022-11-25T00:28:00;4.45;;;1.98;;
19059;SDS011;9663;48.996;8.334;2022-11-25T00:30:26;4.13;;;1.70;;
19059;SDS011;9663;48.996;8.334;2022-11-25T00:32:52;5.82;;;2.50;;
19059;SDS011;9663;48.996;8.334;2022-11-25T00:35:18;4.60;;;1.95;;
19059;SDS011;9663;48.996;8.334;2022-11-25T00:37:45;5.40;;;1.90;;
19059;SDS011;9663;48.996;8.334;2022-11-25T00:40:11;6.53;;;2.15;;
19059;SDS011;9663;48.996;8.334;2022-11-25T00:42:38;3.95;;;1.48;;
19059;SDS011;9663;48.996;8.334;2022-11-25T00:45:22;5.15;;;1.80;;
19059;SDS011;9663;48.996;8.334;2022-11-25T00:47:48;5.30;;;2.00;;
19059;SDS011;9663;48.996;8.334;2022-11-25T00:50:14;5.07;;;1.60;;
19059;SDS011;9663;48.996;8.334;2022-11-25T00:52:39;5.13;;;1.52;;
19059;SDS011;9663;48.996;8.334;2022-11-25T00:55:05;4.90;;;1.33;;
19059;SDS011;9663;48.996;8.334;2022-11-25T00:57:34;3.83;;;1.40;;
19059;SDS011;9663;48.996;8.334;2022-11-25T01:00:00;4.80;;;1.70;;
19059;SDS011;9663;48.996;8.334;2022-11-25T01:02:26;3.28;;;1.27;;
19059;SDS011;9663;48.996;8.334;2022-11-25T01:04:51;3.90;;;1.30;;
19059;SDS011;9663;48.996;8.334;2022-11-25T01:07:17;3.95;;;1.40;;
19059;SDS011;9663;48.996;8.334;2022-11-25T01:09:43;3.90;;;1.40;;
19059;SDS011;9663;48.996;8.334;2022-11-25T01:12:09;4.60;;;1.50;;
19059;SDS011;9663;48.996;8.334;2022-11-25T01:14:35;3.58;;;1.23;;
19059;SDS011;9663;48.996;8.334;2022-11-25T01:17:01;3.00;;;1.13;;
19059;SDS011;9663;48.996;8.334;2022-11-25T01:19:27;4.63;;;1.30;;
19059;SDS011;9663;48.996;8.334;2022-11-25T01:21:52;4.40;;;1.42;;
19059;SDS011;9663;48.996;8.334;2022-11-25T01:24:18;2.97;;;1.27;;
19059;SDS011;9663;48.996;8.334;2022-11-25T01:26:44;3.75;;;1.25;;
19059;SDS011;9663;48.996;8.334;2022-11-25T01:29:14;3.95;;;1.20;;
19059;SDS011;9663;48.996;8.334;2022-11-25T01:31:42;3.95;;;1.10;;
19059;SDS011;9663;48.996;8.334;2022-11-25T01:34:13;4.43;;;1.50;;
19059;SDS011;9663;48.996;8.334;2022-11-25T01:36:45;4.28;;;1.10;;
19059;SDS011;9663;48.996;8.334;2022-11-25T01:39:12;3.20;;;1.10;;
19059;SDS011;9663;48.996;8.334;2022-11-25T01:41:45;3.15;;;1.05;;
19059;SDS011;9663;48.996;8.334;2022-11-25T01:44:14;2.70;;;1.05;;
19059;SDS011;9663;48.996;8.334;2022-11-25T01:46:49;2.80;;;0.95;;
19059;SDS011;9663;48.996;8.334;2022-11-25T01:49:41;3.65;;;1.00;;
19059;SDS011;9663;48.996;8.334;2022-11-25T01:52:27;4.30;;;1.10;;
19059;SDS011;9663;48.996;8.334;2022-11-25T01:54:59;4.15;;;1.10;;
19059;SDS011;9663;48.996;8.334;2022-11-25T01:57:49;4.47;;;1.02;;
19059;SDS011;9663;48.996;8.334;2022-11-25T02:00:22;3.45;;;1.23;;
19059;SDS011;9663;48.996;8.334;2022-11-25T02:02:48;3.75;;;1.00;;
19059;SDS011;9663;48.996;8.334;2022-11-25T02:05:18;3.58;;;1.20;;
19059;SDS011;9663;48.996;8.334;2022-11-25T02:07:50;3.50;;;1.05;;
19059;SDS011;9663;48.996;8.334;2022-11-25T02:10:19;3.70;;;1.10;;
19059;SDS011;9663;48.996;8.334;2022-11-25T02:12:50;3.80;;;1.38;;
19059;SDS011;9663;48.996;8.334;2022-11-25T02:15:17;2.80;;;1.10;;
19059;SDS011;9663;48.996;8.334;2022-11-25T02:17:43;3.53;;;1.15;;
19059;SDS011;9663;48.996;8.334;2022-11-25T02:20:10;2.92;;;1.05;;
19059;SDS011;9663;48.996;8.334;2022-11-25T02:25:49;3.00;;;1.10;;
19059;SDS011;9663;48.996;8.334;2022-11-25T02:28:23;3.45;;;1.10;;
19059;SDS011;9663;48.996;8.334;2022-11-25T02:30:53;3.00;;;1.00;;
19059;SDS011;9663;48.996;8.334;2022-11-25T02:33:19;2.58;;;1.00;;
19059;SDS011;9663;48.996;8.334;2022-11-25T02:38:14;2.38;;;0.85;;
19059;SDS011;9663;48.996;8.334;2022-11-25T02:40:48;3.03;;;1.10;;
19059;SDS011;9663;48.996;8.334;2022-11-25T02:43:29;2.92;;;0.90;;
19059;SDS011;9663;48.996;8.334;2022-11-25T02:45:59;3.65;;;1.00;;
19059;SDS011;9663;48.996;8.334;2022-11-25T02:48:38;4.15;;;1.00;;
19059;SDS011;9663;48.996;8.334;2022-11-25T02:51:06;3.78;;;0.90;;
19059;SDS011;9663;48.996;8.334;2022-11-25T02:53:35;2.80;;;1.00;;
19059;SDS011;9663;48.996;8.334;2022-11-25T02:56:01;2.85;;;1.00;;
19059;SDS011;9663;48.996;8.334;2022-11-25T02:58:27;3.17;;;0.98;;
19059;SDS011;9663;48.996;8.334;2022-11-25T03:00:53;3.55;;;1.13;;
19059;SDS011;9663;48.996;8.334;2022-11-25T03:03:19;3.05;;;0.90;;
19059;SDS011;9663;48.996;8.334;2022-11-25T03:05:45;3.05;;;1.00;;
19059;SDS011;9663;48.996;8.334;2022-11-25T03:08:11;2.70;;;1.00;;
19059;SDS011;9663;48.996;8.334;2022-11-25T03:10:37;3.90;;;1.13;;
19059;SDS011;9663;48.996;8.334;2022-11-25T03:13:04;3.10;;;1.08;;
19059;SDS011;9663;48.996;8.334;2022-11-25T03:15:31;3.08;;;1.17;;
19059;SDS011;9663;48.996;8.334;2022-11-25T03:17:58;4.82;;;1.10;;
19059;SDS011;9663;48.996;8.334;2022-11-25T03:20:24;2.47;;;0.82;;
19059;SDS011;9663;48.996;8.334;2022-11-25T03:22:50;3.50;;;1.20;;
19059;SDS011;9663;48.996;8.334;2022-11-25T03:25:15;2.35;;;0.90;;
19059;SDS011;9663;48.996;8.334;2022-11-25T03:27:42;4.28;;;0.90;;
19059;SDS011;9663;48.996;8.334;2022-11-25T03:30:14;3.28;;;1.00;;
19059;SDS011;9663;48.996;8.334;2022-11-25T03:32:45;2.75;;;0.98;;
19059;SDS011;9663;48.996;8.334;2022-11-25T03:35:11;3.00;;;0.85;;
19059;SDS011;9663;48.996;8.334;2022-11-25T03:37:38;4.28;;;1.10;;
19059;SDS011;9663;48.996;8.334;2022-11-25T03:40:05;4.30;;;1.20;;
19059;SDS011;9663;48.996;8.334;2022-11-25T03:42:33;3.30;;;1.20;;
19059;SDS011;9663;48.996;8.334;2022-11-25T03:44:58;3.90;;;1.10;;
19059;SDS011;9663;48.996;8.334;2022-11-25T03:47:25;3.92;;;1.40;;
19059;SDS011;9663;48.996;8.334;2022-11-25T03:49:50;4.85;;;1.60;;
19059;SDS011;9663;48.996;8.334;2022-11-25T03:52:16;3.72;;;1.30;;
19059;SDS011;9663;48.996;8.334;2022-11-25T03:54:42;3.60;;;1.35;;
19059;SDS011;9663;48.996;8.334;2022-11-25T03:57:08;3.50;;;1.15;;
19059;SDS011;9663;48.996;8.334;2022-11-25T03:59:34;7.20;;;1.52;;
19059;SDS011;9663;48.996;8.334;2022-11-25T04:02:00;5.22;;;1.90;;
19059;SDS011;9663;48.996;8.334;2022-11-25T04:04:26;5.30;;;1.60;;
19059;SDS011;9663;48.996;8.334;2022-11-25T04:06:51;4.60;;;1.73;;
19059;SDS011;9663;48.996;8.334;2022-11-25T04:09:17;7.38;;;1.58;;
19059;SDS011;9663;48.996;8.334;2022-11-25T04:11:42;4.35;;;1.50;;
19059;SDS011;9663;48.996;8.334;2022-11-25T04:14:28;5.80;;;1.80;;
19059;SDS011;9663;48.996;8.334;2022-11-25T04:16:54;3.53;;;1.27;;
19059;SDS011;9663;48.996;8.334;2022-11-25T04:19:20;3.63;;;1.38;;
19059;SDS011;9663;48.996;8.334;2022-11-25T04:21:46;4.63;;;1.17;;
19059;SDS011;9663;48.996;8.334;2022-11-25T04:24:11;4.57;;;1.50;;
19059;SDS011;9663;48.996;8.334;2022-11-25T04:26:37;3.17;;;1.33;;
19059;SDS011;9663;48.996;8.334;2022-11-25T04:29:03;4.22;;;1.00;;
19059;SDS011;9663;48.996;8.334;2022-11-25T04:31:28;3.28;;;1.10;;
19059;SDS011;9663;48.996;8.334;2022-11-25T04:33:54;3.45;;;1.20;;
19059;SDS011;9663;48.996;8.334;2022-11-25T04:36:20;4.97;;;1.30;;
19059;SDS011;9663;48.996;8.334;2022-11-25T04:38:45;3.53;;;1.05;;
19059;SDS011;9663;48.996;8.334;2022-11-25T04:41:11;3.58;;;1.30;;
19059;SDS011;9663;48.996;8.334;2022-11-25T04:43:37;3.53;;;1.23;;
19059;SDS011;9663;48.996;8.334;2022-11-25T04:46:03;3.05;;;1.08;;
19059;SDS011;9663;48.996;8.334;2022-11-25T04:48:29;3.75;;;1.13;;
19059;SDS011;9663;48.996;8.334;2022-11-25T04:50:55;3.65;;;1.20;;
19059;SDS011;9663;48.996;8.334;2022-11-25T04:53:20;4.47;;;1.20;;
19059;SDS011;9663;48.996;8.334;2022-11-25T04:55:46;4.25;;;1.25;;
19059;SDS011;9663;48.996;8.334;2022-11-25T04:58:12;6.50;;;1.20;;
19059;SDS011;9663;48.996;8.334;2022-11-25T05:00:38;3.42;;;1.20;;
19059;SDS011;9663;48.996;8.334;2022-11-25T05:03:04;5.78;;;1.30;;
19059;SDS011;9663;48.996;8.334;2022-11-25T05:05:30;4.03;;;1.45;;
19059;SDS011;9663;48.996;8.334;2022-11-25T05:07:56;3.92;;;1.38;;
19059;SDS011;9663;48.996;8.334;2022-11-25T05:10:22;3.15;;;1.20;;
19059;SDS011;9663;48.996;8.334;2022-11-25T05:12:48;3.80;;;1.20;;
19059;SDS011;9663;48.996;8.334;2022-11-25T05:15:13;2.47;;;0.90;;
19059;SDS011;9663;48.996;8.334;2022-11-25T05:17:39;3.53;;;1.35;;
19059;SDS011;9663;48.996;8.334;2022-11-25T05:20:05;5.47;;;1.25;;
19059;SDS011;9663;48.996;8.334;2022-11-25T05:22:32;2.83;;;0.90;;
19059;SDS011;9663;48.996;8.334;2022-11-25T05:24:59;3.33;;;1.00;;
19059;SDS011;9663;48.996;8.334;2022-11-25T05:27:25;3.00;;;1.10;;
19059;SDS011;9663;48.996;8.334;2022-11-25T05:29:51;3.33;;;1.13;;
19059;SDS011;9663;48.996;8.334;2022-11-25T05:32:17;4.07;;;1.25;;
19059;SDS011;9663;48.996;8.334;2022-11-25T05:34:43;3.80;;;1.20;;
19059;SDS011;9663;48.996;8.334;2022-11-25T05:37:09;4.07;;;1.00;;
19059;SDS011;9663;48.996;8.334;2022-11-25T05:39:38;3.53;;;1.10;;
19059;SDS011;9663;48.996;8.334;2022-11-25T05:42:03;2.83;;;1.10;;
19059;SDS011;9663;48.996;8.334;2022-11-25T05:44:29;3.20;;;1.15;;
19059;SDS011;9663;48.996;8.334;2022-11-25T05:46:55;4.13;;;1.13;;
19059;SDS011;9663;48.996;8.334;2022-11-25T05:49:20;3.80;;;1.13;;
19059;SDS011;9663;48.996;8.334;2022-11-25T05:51:46;4.32;;;1.38;;
19059;SDS011;9663;48.996;8.334;2022-11-25T05:54:12;4.18;;;1.52;;
19059;SDS011;9663;48.996;8.334;2022-11-25T05:56:38;3.40;;;1.30;;
19059;SDS011;9663;48.996;8.334;2022-11-25T05:59:04;4.03;;;1.27;;
19059;SDS011;9663;48.996;8.334;2022-11-25T06:01:30;3.58;;;1.40;;
19059;SDS011;9663;48.996;8.334;2022-11-25T06:04:00;4.95;;;1.30;;
19059;SDS011;9663;48.996;8.334;2022-11-25T06:06:26;2.60;;;1.10;;
19059;SDS011;9663;48.996;8.334;2022-11-25T06:08:52;2.72;;;1.08;;
19059;SDS011;9663;48.996;8.334;2022-11-25T06:11:17;4.18;;;1.20;;
19059;SDS011;9663;48.996;8.334;2022-11-25T06:13:43;3.13;;;1.10;;
19059;SDS011;9663;48.996;8.334;2022-11-25T06:16:11;2.85;;;1.00;;
19059;SDS011;9663;48.996;8.334;2022-11-25T06:18:40;3.38;;;1.30;;
19059;SDS011;9663;48.996;8.334;2022-11-25T06:21:06;5.10;;;1.30;;
19059;SDS011;9663;48.996;8.334;2022-11-25T06:23:33;3.47;;;1.20;;
19059;SDS011;9663;48.996;8.334;2022-11-25T06:26:04;4.38;;;1.00;;
19059;SDS011;9663;48.996;8.334;2022-11-25T06:28:43;2.30;;;0.90;;
19059;SDS011;9663;48.996;8.334;2022-11-25T06:31:11;2.83;;;0.90;;
19059;SDS011;9663;48.996;8.334;2022-11-25T06:33:40;3.30;;;1.25;;
19059;SDS011;9663;48.996;8.334;2022-11-25T06:36:07;4.10;;;1.35;;
19059;SDS011;9663;48.996;8.334;2022-11-25T06:38:40;3.22;;;1.10;;
19059;SDS011;9663;48.996;8.334;2022-11-25T06:41:15;2.72;;;1.10;;
19059;SDS011;9663;48.996;8.334;2022-11-25T06:43:41;4.35;;;1.00;;
19059;SDS011;9663;48.996;8.334;2022-11-25T06:46:09;3.17;;;1.20;;
19059;SDS011;9663;48.996;8.334;2022-11-25T06:48:38;2.97;;;1.02;;
19059;SDS011;9663;48.996;8.334;2022-11-25T06:51:07;2.40;;;0.85;;
19059;SDS011;9663;48.996;8.334;2022-11-25T06:53:36;2.88;;;1.02;;
19059;SDS011;9663;48.996;8.334;2022-11-25T06:58:32;3.00;;;0.90;;
19059;SDS011;9663;48.996;8.334;2022-11-25T07:03:40;2.97;;;0.98;;
19059;SDS011;9663;48.996;8.334;2022-11-25T07:06:08;2.70;;;1.05;;
19059;SDS011;9663;48.996;8.334;2022-11-25T07:08:36;4.93;;;1.20;;
19059;SDS011;9663;48.996;8.334;2022-11-25T07:11:03;3.53;;;1.10;;
19059;SDS011;9663;48.996;8.334;2022-11-25T07:13:32;2.40;;;1.00;;
19059;SDS011;9663;48.996;8.334;2022-11-25T07:16:01;3.08;;;1.00;;
19059;SDS011;9663;48.996;8.334;2022-11-25T07:18:33;2.42;;;0.93;;
19059;SDS011;9663;48.996;8.334;2022-11-25T07:21:08;3.03;;;0.90;;
19059;SDS011;9663;48.996;8.334;2022-11-25T07:23:37;3.22;;;1.20;;
19059;SDS011;9663;48.996;8.334;2022-11-25T07:26:04;2.38;;;0.90;;
19059;SDS011;9663;48.996;8.334;2022-11-25T07:28:39;2.47;;;1.02;;
19059;SDS011;9663;48.996;8.334;2022-11-25T07:33:33;2.97;;;1.10;;
19059;SDS011;9663;48.996;8.334;2022-11-25T07:36:01;2.50;;;1.00;;
19059;SDS011;9663;48.996;8.334;2022-11-25T07:38:29;3.92;;;1.08;;
19059;SDS011;9663;48.996;8.334;2022-11-25T07:41:02;3.47;;;1.20;;
19059;SDS011;9663;48.996;8.334;2022-11-25T07:43:33;2.88;;;0.90;;
19059;SDS011;9663;48.996;8.334;2022-11-25T07:46:14;3.15;;;0.95;;
19059;SDS011;9663;48.996;8.334;2022-11-25T07:48:49;7.40;;;1.00;;
19059;SDS011;9663;48.996;8.334;2022-11-25T07:54:06;3.22;;;1.02;;
19059;SDS011;9663;48.996;8.334;2022-11-25T07:56:36;2.35;;;0.88;;
19059;SDS011;9663;48.996;8.334;2022-11-25T07:59:04;3.30;;;1.10;;
19059;SDS011;9663;48.996;8.334;2022-11-25T08:01:35;4.07;;;0.90;;
19059;SDS011;9663;48.996;8.334;2022-11-25T08:04:01;3.55;;;0.90;;
19059;SDS011;9663;48.996;8.334;2022-11-25T08:06:27;3.13;;;1.02;;
19059;SDS011;9663;48.996;8.334;2022-11-25T08:08:54;4.10;;;0.90;;
19059;SDS011;9663;48.996;8.334;2022-11-25T08:11:23;2.75;;;1.05;;
19059;SDS011;9663;48.996;8.334;2022-11-25T08:13:51;3.38;;;0.88;;
19059;SDS011;9663;48.996;8.334;2022-11-25T08:16:19;3.33;;;0.93;;
19059;SDS011;9663;48.996;8.334;2022-11-25T08:18:47;2.80;;;0.80;;
19059;SDS011;9663;48.996;8.334;2022-11-25T08:21:14;3.00;;;0.80;;
19059;SDS011;9663;48.996;8.334;2022-11-25T08:23:41;2.72;;;0.82;;
19059;SDS011;9663;48.996;8.334;2022-11-25T08:26:12;1.85;;;0.70;;
19059;SDS011;9663;48.996;8.334;2022-11-25T08:28:45;3.28;;;0.80;;
19059;SDS011;9663;48.996;8.334;2022-11-25T08:31:15;3.10;;;0.90;;
19059;SDS011;9663;48.996;8.334;2022-11-25T08:33:48;2.50;;;0.80;;
19059;SDS011;9663;48.996;8.334;2022-11-25T08:36:15;2.45;;;0.80;;
19059;SDS011;9663;48.996;8.334;2022-11-25T08:38:43;2.17;;;0.80;;
19059;SDS011;9663;48.996;8.334;2022-11-25T08:41:16;3.88;;;0.90;;
19059;SDS011;9663;48.996;8.334;2022-11-25T08:43:50;2.30;;;0.70;;
19059;SDS011;9663;48.996;8.334;2022-11-25T08:46:17;2.28;;;0.77;;
19059;SDS011;9663;48.996;8.334;2022-11-25T08:48:47;2.50;;;0.88;;
19059;SDS011;9663;48.996;8.334;2022-11-25T08:51:21;2.40;;;0.88;;
19059;SDS011;9663;48.996;8.334;2022-11-25T08:53:50;2.53;;;1.00;;
19059;SDS011;9663;48.996;8.334;2022-11-25T08:56:17;2.83;;;1.20;;
19059;SDS011;9663;48.996;8.334;2022-11-25T08:58:44;5.03;;;1.23;;
19059;SDS011;9663;48.996;8.334;2022-11-25T09:01:10;3.47;;;1.27;;
19059;SDS011;9663;48.996;8.334;2022-11-25T09:03:38;3.53;;;1.20;;
19059;SDS011;9663;48.996;8.334;2022-11-25T09:06:08;4.20;;;1.25;;
19059;SDS011;9663;48.996;8.334;2022-11-25T09:08:36;2.47;;;0.88;;
19059;SDS011;9663;48.996;8.334;2022-11-25T09:11:04;4.20;;;1.20;;
19059;SDS011;9663;48.996;8.334;2022-11-25T09:13:30;2.17;;;0.88;;
19059;SDS011;9663;48.996;8.334;2022-11-25T09:15:56;3.10;;;1.10;;
19059;SDS011;9663;48.996;8.334;2022-11-25T09:18:22;3.28;;;1.20;;
19059;SDS011;9663;48.996;8.334;2022-11-25T09:20:50;3.22;;;0.95;;
19059;SDS011;9663;48.996;8.334;2022-11-25T09:23:17;3.95;;;1.27;;
19059;SDS011;9663;48.996;8.334;2022-11-25T09:25:50;3.72;;;1.30;;
19059;SDS011;9663;48.996;8.334;2022-11-25T09:28:18;3.35;;;1.20;;
19059;SDS011;9663;48.996;8.334;2022-11-25T09:30:45;4.32;;;1.55;;
19059;SDS011;9663;48.996;8.334;2022-11-25T09:33:12;4.15;;;1.20;;
19059;SDS011;9663;48.996;8.334;2022-11-25T09:35:37;3.25;;;1.10;;
19059;SDS011;9663;48.996;8.334;2022-11-25T09:38:03;3.70;;;1.50;;
19059;SDS011;9663;48.996;8.334;2022-11-25T09:40:33;4.60;;;1.38;;
19059;SDS011;9663;48.996;8.334;2022-11-25T09:46:50;3.60;;;1.20;;
19059;SDS011;9663;48.996;8.334;2022-11-25T09:52:40;4.53;;;1.35;;
19059;SDS011;9663;48.996;8.334;2022-11-25T09:55:34;4.03;;;1.33;;
19059;SDS011;9663;48.996;8.334;2022-11-25T10:01:00;3.03;;;1.35;;
19059;SDS011;9663;48.996;8.334;2022-11-25T10:03:38;2.78;;;1.02;;
19059;SDS011;9663;48.996;8.334;2022-11-25T10:06:16;5.10;;;1.40;;
19059;SDS011;9663;48.996;8.334;2022-11-25T10:08:51;3.90;;;1.13;;
19059;SDS011;9663;48.996;8.334;2022-11-25T10:16:44;3.58;;;1.40;;
19059;SDS011;9663;48.996;8.334;2022-11-25T10:22:27;3.00;;;0.98;;
19059;SDS011;9663;48.996;8.334;2022-11-25T10:25:22;4.03;;;1.30;;
19059;SDS011;9663;48.996;8.334;2022-11-25T10:30:35;3.55;;;1.13;;
19059;SDS011;9663;48.996;8.334;2022-11-25T10:41:35;4.88;;;1.00;;
19059;SDS011;9663;48.996;8.334;2022-11-25T10:44:23;5.25;;;1.40;;
19059;SDS011;9663;48.996;8.334;2022-11-25T10:55:23;3.40;;;1.17;;
19059;SDS011;9663;48.996;8.334;2022-11-25T10:57:54;3.83;;;1.48;;
19059;SDS011;9663;48.996;8.334;2022-11-25T11:02:59;3.85;;;1.38;;
19059;SDS011;9663;48.996;8.334;2022-11-25T11:05:46;5.03;;;1.20;;
19059;SDS011;9663;48.996;8.334;2022-11-25T11:08:17;4.03;;;1.20;;
19059;SDS011;9663;48.996;8.334;2022-11-25T11:10:43;2.88;;;1.00;;
19059;SDS011;9663;48.996;8.334;2022-11-25T11:15:48;5.03;;;1.50;;
19059;SDS011;9663;48.996;8.334;2022-11-25T11:18:20;3.97;;;1.45;;
19059;SDS011;9663;48.996;8.334;2022-11-25T11:21:04;4.43;;;1.60;;
19059;SDS011;9663;48.996;8.334;2022-11-25T11:23:49;3.40;;;1.10;;
19059;SDS011;9663;48.996;8.334;2022-11-25T11:26:23;5.40;;;1.70;;
19059;SDS011;9663;48.996;8.334;2022-11-25T11:29:12;3.95;;;1.40;;
19059;SDS011;9663;48.996;8.334;2022-11-25T11:31:44;3.55;;;1.35;;
19059;SDS011;9663;48.996;8.334;2022-11-25T11:46:08;3.88;;;1.63;;
19059;SDS011;9663;48.996;8.334;2022-11-25T11:49:12;3.45;;;1.27;;
19059;SDS011;9663;48.996;8.334;2022-11-25T12:01:44;4.10;;;1.33;;
19059;SDS011;9663;48.996;8.334;2022-11-25T12:04:35;4.00;;;1.42;;
19059;SDS011;9663;48.996;8.334;2022-11-25T12:10:37;3.65;;;1.23;;
19059;SDS011;9663;48.996;8.334;2022-11-25T12:16:17;5.18;;;1.58;;
19059;SDS011;9663;48.996;8.334;2022-11-25T12:19:19;3.45;;;1.45;;
19059;SDS011;9663;48.996;8.334;2022-11-25T12:22:04;3.17;;;1.30;;
19059;SDS011;9663;48.996;8.334;2022-11-25T12:24:43;3.40;;;1.38;;
19059;SDS011;9663;48.996;8.334;2022-11-25T12:28:00;3.05;;;1.25;;
19059;SDS011;9663;48.996;8.334;2022-11-25T12:33:40;4.28;;;1.40;;
19059;SDS011;9663;48.996;8.334;2022-11-25T12:36:39;3.45;;;1.27;;
19059;SDS011;9663;48.996;8.334;2022-11-25T12:42:01;3.70;;;1.48;;
19059;SDS011;9663;48.996;8.334;2022-11-25T12:44:43;4.70;;;1.40;;
19059;SDS011;9663;48.996;8.334;2022-11-25T12:47:41;4.93;;;1.83;;
19059;SDS011;9663;48.996;8.334;2022-11-25T12:50:15;4.28;;;1.42;;
19059;SDS011;9663;48.996;8.334;2022-11-25T12:52:59;4.55;;;1.55;;
19059;SDS011;9663;48.996;8.334;2022-11-25T12:55:37;3.70;;;1.20;;
19059;SDS011;9663;48.996;8.334;2022-11-25T13:01:15;3.72;;;1.27;;
19059;SDS011;9663;48.996;8.334;2022-11-25T13:15:20;3.33;;;1.20;;
19059;SDS011;9663;48.996;8.334;2022-11-25T13:17:56;4.07;;;1.15;;
19059;SDS011;9663;48.996;8.334;2022-11-25T13:20:32;3.00;;;1.17;;
19059;SDS011;9663;48.996;8.334;2022-11-25T13:25:35;3.55;;;1.25;;
19059;SDS011;9663;48.996;8.334;2022-11-25T13:36:58;4.30;;;1.30;;
19059;SDS011;9663;48.996;8.334;2022-11-25T13:39:33;5.15;;;1.30;;
19059;SDS011;9663;48.996;8.334;2022-11-25T13:44:50;4.45;;;1.65;;
19059;SDS011;9663;48.996;8.334;2022-11-25T13:47:36;4.43;;;1.33;;
19059;SDS011;9663;48.996;8.334;2022-11-25T13:52:40;4.55;;;1.15;;
19059;SDS011;9663;48.996;8.334;2022-11-25T13:55:23;3.88;;;1.20;;
19059;SDS011;9663;48.996;8.334;2022-11-25T14:00:41;3.95;;;1.30;;
19059;SDS011;9663;48.996;8.334;2022-11-25T14:14:23;3.60;;;1.25;;
19059;SDS011;9663;48.996;8.334;2022-11-25T14:22:55;4.30;;;1.35;;
19059;SDS011;9663;48.996;8.334;2022-11-25T14:26:00;3.10;;;1.17;;
19059;SDS011;9663;48.996;8.334;2022-11-25T14:28:35;4.20;;;1.25;;
19059;SDS011;9663;48.996;8.334;2022-11-25T14:31:15;3.03;;;1.13;;
19059;SDS011;9663;48.996;8.334;2022-11-25T14:33:53;4.28;;;1.30;;
19059;SDS011;9663;48.996;8.334;2022-11-25T14:36:32;3.88;;;1.60;;
19059;SDS011;9663;48.996;8.334;2022-11-25T14:39:07;3.72;;;1.00;;
19059;SDS011;9663;48.996;8.334;2022-11-25T14:45:03;3.83;;;1.20;;
19059;SDS011;9663;48.996;8.334;2022-11-25T14:47:26;4.63;;;1.60;;
19059;SDS011;9663;48.996;8.334;2022-11-25T14:49:57;4.57;;;1.33;;
19059;SDS011;9663;48.996;8.334;2022-11-25T14:52:27;2.72;;;0.93;;
19059;SDS011;9663;48.996;8.334;2022-11-25T14:54:58;4.90;;;1.65;;
19059;SDS011;9663;48.996;8.334;2022-11-25T14:57:28;3.78;;;1.10;;
19059;SDS011;9663;48.996;8.334;2022-11-25T15:00:02;3.85;;;1.33;;
19059;SDS011;9663;48.996;8.334;2022-11-25T15:05:43;4.93;;;1.40;;
19059;SDS011;9663;48.996;8.334;2022-11-25T15:08:09;5.15;;;1.50;;
19059;SDS011;9663;48.996;8.334;2022-11-25T15:10:43;4.32;;;1.48;;
19059;SDS011;9663;48.996;8.334;2022-11-25T15:16:04;4.47;;;1.38;;
19059;SDS011;9663;48.996;8.334;2022-11-25T15:18:52;4.32;;;1.40;;
19059;SDS011;9663;48.996;8.334;2022-11-25T15:21:26;5.88;;;1.35;;
19059;SDS011;9663;48.996;8.334;2022-11-25T15:24:00;3.67;;;1.20;;
19059;SDS011;9663;48.996;8.334;2022-11-25T15:26:29;4.20;;;1.42;;
19059;SDS011;9663;48.996;8.334;2022-11-25T15:29:00;3.90;;;1.25;;
19059;SDS011;9663;48.996;8.334;2022-11-25T15:31:35;5.18;;;1.42;;
19059;SDS011;9663;48.996;8.334;2022-11-25T15:34:03;4.80;;;1.20;;
19059;SDS011;9663;48.996;8.334;2022-11-25T15:36:35;3.80;;;1.40;;
19059;SDS011;9663;48.996;8.334;2022-11-25T15:39:15;5.78;;;1.50;;
19059;SDS011;9663;48.996;8.334;2022-11-25T15:42:06;6.72;;;1.20;;
19059;SDS011;9663;48.996;8.334;2022-11-25T15:44:59;3.70;;;1.10;;
19059;SDS011;9663;48.996;8.334;2022-11-25T15:47:43;3.60;;;1.17;;
19059;SDS011;9663;48.996;8.334;2022-11-25T15:52:46;3.85;;;1.20;;
19059;SDS011;9663;48.996;8.334;2022-11-25T15:55:19;5.50;;;1.33;;
19059;SDS011;9663;48.996;8.334;2022-11-25T15:57:57;3.67;;;1.00;;
19059;SDS011;9663;48.996;8.334;2022-11-25T16:03:42;3.45;;;1.15;;
19059;SDS011;9663;48.996;8.334;2022-11-25T16:06:17;4.25;;;1.40;;
19059;SDS011;9663;48.996;8.334;2022-11-25T16:08:52;3.72;;;1.00;;
19059;SDS011;9663;48.996;8.334;2022-11-25T16:11:24;3.92;;;1.30;;
19059;SDS011;9663;48.996;8.334;2022-11-25T16:14:15;3.78;;;1.08;;
19059;SDS011;9663;48.996;8.334;2022-11-25T16:16:59;4.70;;;1.40;;
19059;SDS011;9663;48.996;8.334;2022-11-25T16:19:37;4.13;;;1.20;;
19059;SDS011;9663;48.996;8.334;2022-11-25T16:22:12;3.80;;;1.15;;
19059;SDS011;9663;48.996;8.334;2022-11-25T16:24:46;5.38;;;1.30;;
19059;SDS011;9663;48.996;8.334;2022-11-25T16:27:16;3.30;;;1.10;;
19059;SDS011;9663;48.996;8.334;2022-11-25T16:32:42;3.42;;;1.20;;
19059;SDS011;9663;48.996;8.334;2022-11-25T16:35:15;2.88;;;1.00;;
19059;SDS011;9663;48.996;8.334;2022-11-25T16:37:45;3.20;;;1.08;;
19059;SDS011;9663;48.996;8.334;2022-11-25T16:40:13;3.42;;;1.30;;
19059;SDS011;9663;48.996;8.334;2022-11-25T16:42:40;3.47;;;1.10;;
19059;SDS011;9663;48.996;8.334;2022-11-25T16:45:21;3.70;;;1.30;;
19059;SDS011;9663;48.996;8.334;2022-11-25T16:47:50;4.10;;;1.30;;
19059;SDS011;9663;48.996;8.334;2022-11-25T16:50:17;3.80;;;1.52;;
19059;SDS011;9663;48.996;8.334;2022-11-25T16:52:44;4.57;;;1.42;;
19059;SDS011;9663;48.996;8.334;2022-11-25T16:55:10;5.10;;;1.38;;
19059;SDS011;9663;48.996;8.334;2022-11-25T16:57:35;4.25;;;1.10;;
19059;SDS011;9663;48.996;8.334;2022-11-25T17:00:04;4.03;;;1.20;;
19059;SDS011;9663;48.996;8.334;2022-11-25T17:02:37;4.57;;;1.50;;
19059;SDS011;9663;48.996;8.334;2022-11-25T17:05:20;4.20;;;1.30;;
19059;SDS011;9663;48.996;8.334;2022-11-25T17:07:53;4.82;;;1.58;;
19059;SDS011;9663;48.996;8.334;2022-11-25T17:10:20;6.07;;;1.42;;
19059;SDS011;9663;48.996;8.334;2022-11-25T17:12:46;5.40;;;1.40;;
19059;SDS011;9663;48.996;8.334;2022-11-25T17:15:14;5.28;;;1.50;;
19059;SDS011;9663;48.996;8.334;2022-11-25T17:17:53;5.82;;;1.40;;
19059;SDS011;9663;48.996;8.334;2022-11-25T17:20:20;5.75;;;1.58;;
19059;SDS011;9663;48.996;8.334;2022-11-25T17:22:49;5.47;;;1.50;;
19059;SDS011;9663;48.996;8.334;2022-11-25T17:25:20;4.18;;;1.70;;
19059;SDS011;9663;48.996;8.334;2022-11-25T17:27:48;4.22;;;1.40;;
19059;SDS011;9663;48.996;8.334;2022-11-25T17:30:18;4.28;;;1.60;;
19059;SDS011;9663;48.996;8.334;2022-11-25T17:32:52;5.63;;;1.80;;
19059;SDS011;9663;48.996;8.334;2022-11-25T17:35:26;4.40;;;1.60;;
19059;SDS011;9663;48.996;8.334;2022-11-25T17:37:52;4.30;;;1.77;;
19059;SDS011;9663;48.996;8.334;2022-11-25T17:40:17;4.82;;;1.85;;
19059;SDS011;9663;48.996;8.334;2022-11-25T17:42:43;6.32;;;1.90;;
19059;SDS011;9663;48.996;8.334;2022-11-25T17:45:15;3.67;;;1.40;;
19059;SDS011;9663;48.996;8.334;2022-11-25T17:47:43;5.03;;;1.73;;
19059;SDS011;9663;48.996;8.334;2022-11-25T17:50:20;5.32;;;1.55;;
19059;SDS011;9663;48.996;8.334;2022-11-25T17:52:49;5.53;;;1.65;;
19059;SDS011;9663;48.996;8.334;2022-11-25T17:55:15;5.05;;;1.80;;
19059;SDS011;9663;48.996;8.334;2022-11-25T17:57:47;4.60;;;1.55;;
19059;SDS011;9663;48.996;8.334;2022-11-25T18:00:14;4.88;;;1.60;;
19059;SDS011;9663;48.996;8.334;2022-11-25T18:02:44;6.88;;;1.55;;
19059;SDS011;9663;48.996;8.334;2022-11-25T18:05:14;5.80;;;1.85;;
19059;SDS011;9663;48.996;8.334;2022-11-25T18:07:46;4.20;;;1.48;;